Accueil
METAR-TAF:

METAR-TAF

Aéroports :

Wiener Neustadt, Autriche

latitude: 47-50-36N, longitude: 016-15-29E, altitude: 272 m

Observation

Le bulletin a été fait il y a 22 minutes, à 08:00 UTC
Vent 14 kt de nord/nord-ouest avec des rafales jusqu'à 24 kt
Température
Pression

METAR: LOAN 270800Z 34014G24KT 40KM FEW040CU

Heure: 10:22 (08:22 UTC)

Prévision

Le bulletin a été fait il y a 1 heure et 22 minutes, à 07:00 UTC
Prévision valable du 27 à 07 UTC au 27 à 15 UTC
Vent 12 kt de nord-ouest
Visibilité 10 km ou plus
Quelques nuages à une hauteur de 4000 ft
Temporairement
du 27 à 07 UTC au 27 à 15 UTC
Vent 15 kt de nord/nord-ouest avec des rafales jusqu'à 25 kt

TAF: LOAN 270700Z 2707/2715 32012KT 9999 FEW040 TEMPO 2707/2715 33015G25KT

Observations et prévisions météorologiques de plus de 4000 aéroports (messages METAR et TAF).

Les stations disponibles sont représentées par des disques jaunes et rouges sur la carte.

Passer la souris dessus pour voir le nom de la station.

Cliquer dessus pour voir les observations et prévisions météorologiques.

Pour changer de carte: cliquez sur les boutons verts avec une croix noire pour zoomer, sur le bouton vert avec un tiret pour effectuer un zoom arrière, ou sur les flèches vertes pour les cartes adjacentes.


METAR-TAF: